Time;durP1;ratioP1;P1;durP2;ratioP2;P2;SDS_P1;SDS_P2;PMS_P1;PMS_P2;Temp;Humidity;BMP_temperature;BMP_pressure;BME280_temperature;BME280_humidity;BME280_pressure;Samples;Min_cycle;Max_cycle;Signal;HPM_P1;HPM_P2
2024/02/06 00:00:46;;;;;;;10.23;6.10;;;;;;;10.16;100.00;100814.28;5062827;28;20056;-64
2024/02/06 00:03:11;;;;;;;8.18;5.00;;;;;;;9.27;100.00;100687.56;5061893;28;20502;-64
2024/02/06 00:05:38;;;;;;;9.27;6.43;;;;;;;10.13;100.00;100827.03;5063569;28;20065;-66
2024/02/06 00:08:04;;;;;;;11.43;6.10;;;;;;;10.05;100.00;100802.53;5055188;28;20159;-64
2024/02/06 00:10:30;;;;;;;8.63;4.63;;;;;;;10.01;100.00;100767.88;5057861;28;20116;-65
2024/02/06 00:12:55;;;;;;;7.70;4.13;;;;;;;9.89;100.00;100790.88;5057582;28;20063;-64
2024/02/06 00:15:21;;;;;;;6.65;4.32;;;;;;;9.25;100.00;100643.63;5057127;28;20033;-66
2024/02/06 00:17:46;;;;;;;6.90;4.03;;;;;;;9.83;100.00;100801.13;5060521;28;20035;-64
2024/02/06 00:20:12;;;;;;;5.75;3.90;;;;;;;9.87;100.00;100762.97;5058590;28;20033;-65
2024/02/06 00:22:38;;;;;;;8.38;4.10;;;;;;;9.65;100.00;100809.78;5064214;28;20047;-64
2024/02/06 00:25:04;;;;;;;6.57;3.83;;;;;;;9.89;100.00;100728.25;5057697;28;20033;-65
2024/02/06 00:27:30;;;;;;;5.38;3.50;;;;;;;10.57;100.00;100690.84;5055906;28;20033;-65
2024/02/06 00:29:55;;;;;;;7.35;3.78;;;;;;;10.68;100.00;100610.13;5054029;28;20393;-67
2024/02/06 00:32:21;;;;;;;8.95;3.40;;;;;;;11.32;100.00;100591.03;5058291;28;20080;-64
2024/02/06 00:34:48;;;;;;;8.90;3.10;;;;;;;10.35;100.00;100584.47;5057521;28;20403;-65
2024/02/06 00:37:13;;;;;;;3.85;2.20;;;;;;;11.99;100.00;100655.78;5064774;28;20029;-65
2024/02/06 00:39:39;;;;;;;5.03;2.38;;;;;;;12.12;100.00;100562.91;5054954;28;20036;-65
2024/02/06 00:42:04;;;;;;;4.70;2.10;;;;;;;12.09;100.00;100551.06;5056296;28;20116;-65
2024/02/06 00:44:30;;;;;;;4.45;3.10;;;;;;;11.59;100.00;100690.63;5058590;28;20129;-65
2024/02/06 00:46:55;;;;;;;6.60;2.67;;;;;;;11.88;100.00;100782.59;5055176;28;20037;-69
2024/02/06 00:49:21;;;;;;;5.80;2.33;;;;;;;11.83;100.00;100815.81;5055875;28;20119;-65
2024/02/06 00:51:46;;;;;;;4.53;2.35;;;;;;;11.74;100.00;100830.44;5056583;28;20053;-64
2024/02/06 00:54:12;;;;;;;4.45;2.15;;;;;;;11.89;100.00;100599.13;5062147;28;20043;-64
2024/02/06 00:56:39;;;;;;;6.10;2.67;;;;;;;12.35;100.00;100633.69;5062461;28;20419;-64
2024/02/06 00:59:05;;;;;;;7.05;2.45;;;;;;;12.41;100.00;100536.66;5053608;28;20028;-65
2024/02/06 01:01:30;;;;;;;4.35;1.85;;;;;;;12.79;100.00;100513.50;5057405;28;20038;-65
2024/02/06 01:03:56;;;;;;;5.47;2.15;;;;;;;13.44;100.00;100623.94;5057741;28;20111;-65
2024/02/06 01:06:21;;;;;;;5.20;2.08;;;;;;;13.25;100.00;100627.91;5060018;28;20409;-65
2024/02/06 01:08:48;;;;;;;6.82;2.30;;;;;;;12.80;100.00;100510.88;5060048;28;20028;-71
2024/02/06 01:11:13;;;;;;;5.13;2.35;;;;;;;12.95;100.00;100594.66;5057540;28;20029;-65
2024/02/06 01:13:38;;;;;;;4.53;2.35;;;;;;;13.02;100.00;100511.09;5058356;28;20032;-66
2024/02/06 01:16:04;;;;;;;7.38;2.40;;;;;;;13.36;100.00;100638.66;5059509;28;20465;-66
2024/02/06 01:18:30;;;;;;;6.20;2.60;;;;;;;12.53;100.00;100490.41;5059251;28;20032;-64
2024/02/06 01:20:55;;;;;;;6.55;2.50;;;;;;;13.25;100.00;100467.03;5055357;28;20032;-72
2024/02/06 01:23:21;;;;;;;5.57;2.22;;;;;;;12.82;100.00;100533.78;5059715;28;20063;-66
2024/02/06 01:25:46;;;;;;;5.80;2.47;;;;;;;13.25;100.00;100472.16;5053059;28;20036;-65
2024/02/06 01:28:12;;;;;;;7.32;2.78;;;;;;;13.57;100.00;100615.88;5057293;28;20033;-65
2024/02/06 01:30:37;;;;;;;7.30;2.85;;;;;;;12.54;100.00;100456.41;5058827;28;20034;-65
2024/02/06 01:33:03;;;;;;;5.50;2.42;;;;;;;13.41;100.00;100507.38;5062621;28;20400;-65
2024/02/06 01:35:28;;;;;;;4.88;2.13;;;;;;;13.20;100.00;100499.53;5061036;28;20101;-64
2024/02/06 01:37:54;;;;;;;6.20;1.92;;;;;;;13.49;100.00;100461.97;5057334;28;20028;-67
2024/02/06 01:40:19;;;;;;;4.25;2.50;;;;;;;13.38;100.00;100512.59;5057065;28;20025;-64
2024/02/06 01:42:47;;;;;;;8.00;2.15;;;;;;;13.64;100.00;100645.47;5056545;28;20028;-65
2024/02/06 01:45:12;;;;;;;6.47;2.17;;;;;;;13.55;100.00;100643.19;5057579;28;20083;-64
2024/02/06 01:47:39;;;;;;;5.35;2.13;;;;;;;13.17;100.00;100638.34;5059137;28;20502;-72
2024/02/06 01:50:06;;;;;;;4.45;2.00;;;;;;;13.41;100.00;100686.16;5057581;28;20036;-65
2024/02/06 01:52:32;;;;;;;4.93;2.00;;;;;;;12.88;100.00;100588.06;5055141;28;20035;-64
2024/02/06 01:54:59;;;;;;;6.50;2.75;;;;;;;13.85;100.00;100596.25;5057660;28;20549;-69
2024/02/06 01:57:25;;;;;;;5.82;2.40;;;;;;;12.86;100.00;100709.75;5058984;28;20078;-68
2024/02/06 01:59:50;;;;;;;5.28;2.65;;;;;;;12.72;100.00;100824.06;5056086;28;20036;-64
2024/02/06 02:02:16;;;;;;;6.50;4.00;;;;;;;12.60;100.00;100813.31;5054377;28;20074;-65
2024/02/06 02:04:42;;;;;;;8.73;4.63;;;;;;;12.05;100.00;100715.13;5064296;28;20502;-66
2024/02/06 02:07:08;;;;;;;7.65;4.05;;;;;;;11.64;100.00;100837.38;5054488;28;20036;-65
2024/02/06 02:09:34;;;;;;;10.10;4.15;;;;;;;11.92;100.00;100932.84;5055355;28;20433;-65
2024/02/06 02:11:59;;;;;;;10.63;5.05;;;;;;;11.73;100.00;100864.41;5057060;28;20119;-73
2024/02/06 02:14:25;;;;;;;8.95;4.88;;;;;;;11.54;100.00;100902.09;5059852;28;20094;-63
2024/02/06 02:16:52;;;;;;;13.40;6.28;;;;;;;11.35;100.00;100844.69;5058618;28;20053;-64
2024/02/06 02:19:18;;;;;;;9.88;5.97;;;;;;;10.71;100.00;100875.41;5057937;28;20028;-64
2024/02/06 02:21:43;;;;;;;10.27;5.60;;;;;;;11.42;100.00;100929.44;5058277;28;20435;-70
2024/02/06 02:24:09;;;;;;;11.23;5.65;;;;;;;11.17;100.00;101001.09;5061573;28;20036;-64
2024/02/06 02:26:36;;;;;;;12.25;5.47;;;;;;;10.93;100.00;100886.09;5059729;28;20028;-64
2024/02/06 02:29:02;;;;;;;10.35;5.10;;;;;;;10.19;100.00;100793.94;5059747;28;20415;-64
2024/02/06 02:31:31;;;;;;;9.18;4.97;;;;;;;11.21;100.00;100949.28;5066153;28;20028;-64
2024/02/06 02:33:57;;;;;;;11.43;5.55;;;;;;;9.65;100.00;100859.75;5061082;28;20091;-64
2024/02/06 02:36:22;;;;;;;8.57;4.75;;;;;;;10.69;100.00;100993.25;5060002;28;20476;-63
2024/02/06 02:38:48;;;;;;;8.93;4.20;;;;;;;11.01;100.00;100947.91;5060854;28;20033;-64
2024/02/06 02:41:13;;;;;;;7.53;4.63;;;;;;;10.75;100.00;101031.34;5056264;28;20029;-68
2024/02/06 02:43:39;;;;;;;10.15;5.53;;;;;;;10.61;100.00;101002.69;5060533;28;20032;-64
2024/02/06 02:46:04;;;;;;;8.73;4.50;;;;;;;10.84;100.00;100987.97;5063914;28;20418;-65
2024/02/06 02:48:34;;;;;;;8.98;4.35;;;;;;;10.76;100.00;101010.97;5063654;28;20029;-64
2024/02/06 02:51:00;;;;;;;7.35;4.20;;;;;;;10.28;100.00;100927.66;5057696;28;20407;-65
2024/02/06 02:53:25;;;;;;;7.80;3.70;;;;;;;10.71;100.00;100996.63;5058452;28;20028;-65
2024/02/06 02:55:51;;;;;;;5.78;3.30;;;;;;;10.34;100.00;100871.66;5058564;28;20045;-65
2024/02/06 02:58:16;;;;;;;7.30;3.40;;;;;;;10.15;100.00;100918.47;5063935;28;20040;-65
2024/02/06 03:00:41;;;;;;;7.90;3.90;;;;;;;10.08;100.00;100963.38;5055323;28;20051;-64
2024/02/06 03:03:07;;;;;;;6.35;3.78;;;;;;;10.66;100.00;101021.25;5062918;28;20082;-65
2024/02/06 03:05:32;;;;;;;6.57;3.92;;;;;;;12.23;100.00;100832.84;5060635;28;20048;-65
2024/02/06 03:07:58;;;;;;;8.43;3.83;;;;;;;11.38;100.00;100994.84;5059638;28;20053;-64
2024/02/06 03:10:23;;;;;;;5.25;3.63;;;;;;;11.55;100.00;100964.06;5061201;28;20420;-71
2024/02/06 03:12:49;;;;;;;7.38;3.97;;;;;;;10.78;100.00;100888.84;5058166;28;20048;-64
2024/02/06 03:15:15;;;;;;;5.63;3.40;;;;;;;11.91;100.00;100963.44;5054045;28;20029;-65
2024/02/06 03:17:40;;;;;;;8.63;3.35;;;;;;;11.60;100.00;100875.66;5057007;28;20518;-65
2024/02/06 03:20:07;;;;;;;6.55;3.70;;;;;;;11.01;100.00;100919.91;5060860;28;20032;-66
2024/02/06 03:22:32;;;;;;;6.68;3.53;;;;;;;11.12;100.00;100824.72;5056848;28;20545;-64
2024/02/06 03:24:59;;;;;;;8.43;4.07;;;;;;;11.85;100.00;100932.97;5058482;28;20033;-65
2024/02/06 03:27:25;;;;;;;6.13;4.30;;;;;;;10.93;100.00;100909.84;5057959;28;20202;-66
2024/02/06 03:29:50;;;;;;;7.50;3.70;;;;;;;11.17;100.00;100875.56;5054275;28;20548;-65
2024/02/06 03:32:16;;;;;;;9.32;4.03;;;;;;;11.07;100.00;100896.91;5054718;28;20029;-65
2024/02/06 03:34:41;;;;;;;8.13;3.75;;;;;;;11.56;100.00;100979.31;5056890;28;20025;-70
2024/02/06 03:37:07;;;;;;;9.40;4.60;;;;;;;10.94;100.00;100863.19;5056818;28;20024;-65
2024/02/06 03:39:32;;;;;;;8.02;4.00;;;;;;;12.03;100.00;100912.25;5056817;28;20025;-64
2024/02/06 03:41:58;;;;;;;10.15;4.10;;;;;;;11.48;100.00;100958.22;5057249;28;20502;-67
2024/02/06 03:44:24;;;;;;;8.50;4.85;;;;;;;10.85;100.00;100903.19;5061547;28;20024;-64
2024/02/06 03:46:49;;;;;;;10.02;4.50;;;;;;;11.55;100.00;100735.69;5063580;28;20379;-64
2024/02/06 03:49:14;;;;;;;7.60;3.60;;;;;;;11.98;100.00;100880.94;5060790;28;20037;-64
2024/02/06 03:51:40;;;;;;;6.05;2.63;;;;;;;12.84;100.00;100650.25;5061372;28;20411;-65
2024/02/06 03:54:05;;;;;;;8.63;2.50;;;;;;;12.31;100.00;100525.00;5059780;28;20029;-65
2024/02/06 03:56:31;;;;;;;6.70;2.90;;;;;;;12.47;100.00;100503.34;5057833;28;20048;-65
2024/02/06 03:58:56;;;;;;;7.75;2.72;;;;;;;12.84;100.00;100716.63;5061010;28;20923;-65
2024/02/06 04:01:22;;;;;;;6.55;2.42;;;;;;;12.90;100.00;100822.81;5060374;28;20033;-65
2024/02/06 04:03:47;;;;;;;8.48;2.60;;;;;;;12.50;100.00;100657.09;5057844;28;20047;-65
2024/02/06 04:06:14;;;;;;;7.30;2.63;;;;;;;13.09;100.00;100769.63;5058466;28;20040;-65
2024/02/06 04:08:43;;;;;;;6.05;2.20;;;;;;;12.55;100.00;100657.84;5052857;28;20484;-65
2024/02/06 04:11:12;;;;;;;6.20;2.72;;;;;;;12.56;100.00;100634.00;5059010;28;20089;-68
2024/02/06 04:13:38;;;;;;;6.38;2.97;;;;;;;13.15;100.00;100757.56;5059367;28;20526;-64
2024/02/06 04:16:05;;;;;;;7.75;3.50;;;;;;;13.40;100.00;100743.25;5059535;28;20039;-65
2024/02/06 04:18:31;;;;;;;9.00;4.25;;;;;;;12.96;100.00;100618.47;5061243;28;20487;-64
2024/02/06 04:20:56;;;;;;;10.63;4.20;;;;;;;12.90;100.00;100600.78;5061114;28;20031;-69
2024/02/06 04:23:24;;;;;;;8.77;4.18;;;;;;;13.43;100.00;100725.28;5057439;28;20032;-66
2024/02/06 04:25:50;;;;;;;9.27;4.43;;;;;;;13.44;100.00;100667.38;5058201;28;20040;-68
2024/02/06 04:28:15;;;;;;;7.68;2.92;;;;;;;13.27;100.00;100573.34;5058404;28;20035;-64
2024/02/06 04:30:41;;;;;;;7.68;2.58;;;;;;;13.77;100.00;100690.22;5056675;28;20384;-64
2024/02/06 04:33:07;;;;;;;7.15;2.47;;;;;;;13.45;100.00;100722.69;5059695;28;20410;-64
2024/02/06 04:35:33;;;;;;;7.25;1.98;;;;;;;12.80;100.00;100554.25;5052791;28;20035;-65
2024/02/06 04:37:58;;;;;;;8.75;2.40;;;;;;;13.21;100.00;100558.19;5054245;28;20033;-65
2024/02/06 04:40:24;;;;;;;9.27;3.42;;;;;;;13.28;100.00;100706.97;5055316;28;20032;-65
2024/02/06 04:42:49;;;;;;;6.40;2.50;;;;;;;13.46;100.00;100692.00;5054457;28;20029;-66
2024/02/06 04:45:15;;;;;;;6.18;2.50;;;;;;;13.00;100.00;100604.75;5052275;28;20116;-65
2024/02/06 04:47:41;;;;;;;6.20;2.50;;;;;;;13.44;100.00;100688.66;5052558;28;20415;-68
2024/02/06 04:50:07;;;;;;;7.10;3.00;;;;;;;13.40;100.00;100766.25;5055637;28;20377;-65
2024/02/06 04:52:32;;;;;;;11.45;3.78;;;;;;;13.30;100.00;100762.25;5048139;28;20060;-67
2024/02/06 04:54:59;;;;;;;7.43;3.00;;;;;;;13.07;100.00;100785.00;5052046;28;20045;-66
2024/02/06 04:57:24;;;;;;;9.07;2.63;;;;;;;12.43;100.00;100685.34;5048208;28;20040;-66
2024/02/06 04:59:50;;;;;;;8.18;2.75;;;;;;;13.11;100.00;100816.38;5051139;28;20090;-65
2024/02/06 05:02:16;;;;;;;7.22;2.70;;;;;;;13.05;100.00;100792.66;5045954;28;20605;-64
2024/02/06 05:04:41;;;;;;;6.40;2.90;;;;;;;13.28;100.00;100770.81;5047621;28;20020;-72
2024/02/06 05:07:07;;;;;;;9.52;3.65;;;;;;;13.11;100.00;100776.38;5051891;28;20027;-70
2024/02/06 05:09:32;;;;;;;7.68;2.58;;;;;;;13.43;100.00;100743.16;5052672;28;20052;-71
2024/02/06 05:11:57;;;;;;;7.72;3.65;;;;;;;12.87;100.00;100623.84;5054755;28;20465;-70
2024/02/06 05:14:25;;;;;;;10.45;3.30;;;;;;;12.75;100.00;100616.50;5052511;28;20442;-67
2024/02/06 05:16:53;;;;;;;6.93;3.88;;;;;;;13.30;100.00;100756.28;5050916;28;20025;-68
2024/02/06 05:19:19;;;;;;;9.45;3.47;;;;;;;12.71;100.00;100529.00;5053892;28;20091;-69
2024/02/06 05:21:44;;;;;;;7.95;4.43;;;;;;;13.39;100.00;100753.50;5054242;28;20032;-70
2024/02/06 05:24:10;;;;;;;9.52;4.85;;;;;;;12.58;100.00;100673.06;5049528;28;20438;-72
2024/02/06 05:26:36;;;;;;;8.88;4.53;;;;;;;12.48;100.00;100686.09;5048358;28;20079;-71
2024/02/06 05:29:01;;;;;;;9.35;4.05;;;;;;;13.38;100.00;100770.56;5054665;28;20063;-72
2024/02/06 05:31:27;;;;;;;8.07;3.88;;;;;;;13.00;100.00;100761.28;5049332;28;20037;-70
2024/02/06 05:33:52;;;;;;;12.93;5.00;;;;;;;13.18;100.00;100811.09;5052728;28;20388;-69
2024/02/06 05:36:17;;;;;;;9.20;3.80;;;;;;;12.18;100.00;100608.63;5053296;28;20446;-70
2024/02/06 05:38:43;;;;;;;10.85;3.72;;;;;;;12.61;100.00;100667.03;5051235;28;20036;-71
2024/02/06 05:41:12;;;;;;;11.93;3.53;;;;;;;13.42;100.00;100715.09;5051079;28;20024;-70
2024/02/06 05:43:38;;;;;;;6.40;3.38;;;;;;;12.45;100.00;100579.03;5050136;28;20025;-68
2024/02/06 05:46:04;;;;;;;11.10;3.65;;;;;;;13.44;100.00;100744.00;5054525;28;20024;-66
2024/02/06 05:48:29;;;;;;;8.05;3.80;;;;;;;13.03;100.00;100646.38;5049939;28;20507;-67
2024/02/06 05:50:56;;;;;;;17.05;5.88;;;;;;;13.61;100.00;100700.91;5054696;28;20112;-69
2024/02/06 05:53:21;;;;;;;9.80;4.72;;;;;;;13.68;100.00;100703.28;5055185;28;20152;-67
2024/02/06 05:55:47;;;;;;;7.72;3.25;;;;;;;14.00;100.00;100623.06;5058598;28;20128;-69
2024/02/06 05:58:12;;;;;;;9.85;3.83;;;;;;;13.72;100.00;100530.25;5055558;28;20036;-69
2024/02/06 06:00:38;;;;;;;8.20;4.32;;;;;;;14.33;100.00;100485.59;5056389;28;20450;-68
2024/02/06 06:03:04;;;;;;;8.02;4.60;;;;;;;14.56;100.00;100562.38;5057835;28;20052;-69
2024/02/06 06:05:30;;;;;;;10.40;4.07;;;;;;;14.88;100.00;100510.03;5051090;28;20479;-68
2024/02/06 06:07:55;;;;;;;10.15;4.10;;;;;;;16.14;100.00;100353.59;5055409;28;20119;-71
2024/02/06 06:10:21;;;;;;;9.55;4.82;;;;;;;16.69;100.00;100215.88;5055657;28;20029;-67
2024/02/06 06:12:46;;;;;;;12.07;4.10;;;;;;;16.46;100.00;100347.00;5054446;28;20021;-68
2024/02/06 06:15:12;;;;;;;7.93;4.55;;;;;;;15.62;100.00;100151.72;5058076;28;20064;-68
2024/02/06 06:17:37;;;;;;;8.63;4.93;;;;;;;17.12;100.00;100271.91;5071469;28;20074;-68
2024/02/06 06:20:04;;;;;;;13.65;10.10;;;;;;;15.10;100.00;100388.81;5060828;28;20032;-68
2024/02/06 06:22:29;;;;;;;15.45;7.82;;;;;;;15.37;100.00;100535.47;5061399;28;20075;-68
2024/02/06 06:24:54;;;;;;;18.58;12.45;;;;;;;14.23;100.00;100540.47;5055363;28;20055;-69
2024/02/06 06:27:20;;;;;;;21.38;15.55;;;;;;;13.54;100.00;100695.16;5061214;28;20487;-67
2024/02/06 06:29:46;;;;;;;17.33;9.55;;;;;;;14.87;100.00;100550.16;5062067;28;20028;-67
2024/02/06 06:32:12;;;;;;;13.20;6.75;;;;;;;15.43;100.00;100517.34;5062006;28;20024;-68
2024/02/06 06:34:39;;;;;;;14.10;6.50;;;;;;;14.75;100.00;100582.19;5053387;28;20029;-68
2024/02/06 06:37:05;;;;;;;8.80;5.72;;;;;;;15.04;100.00;100576.00;5064573;28;20128;-68
2024/02/06 06:39:30;;;;;;;9.30;5.70;;;;;;;14.46;100.00;100481.72;5056514;28;20115;-67
2024/02/06 06:41:55;;;;;;;12.85;6.53;;;;;;;16.22;100.00;100282.25;5057644;28;20106;-67
2024/02/06 06:44:21;;;;;;;14.75;8.25;;;;;;;15.54;100.00;100381.91;5059020;28;20399;-68
2024/02/06 06:46:48;;;;;;;17.10;9.35;;;;;;;14.86;100.00;100617.63;5063140;28;20513;-68
2024/02/06 06:49:13;;;;;;;15.02;7.78;;;;;;;14.03;100.00;100547.97;5060341;28;20460;-70
2024/02/06 06:51:38;;;;;;;14.48;8.60;;;;;;;13.72;100.00;100624.78;5057982;28;20105;-67
2024/02/06 06:54:04;;;;;;;13.43;7.03;;;;;;;13.90;100.00;100579.03;5062476;28;20115;-68
2024/02/06 06:56:30;;;;;;;15.55;8.13;;;;;;;14.74;100.00;100618.88;5064548;28;20055;-68
2024/02/06 06:58:55;;;;;;;14.57;10.27;;;;;;;14.43;100.00;100633.59;5065837;28;20119;-68
2024/02/06 07:01:20;;;;;;;10.13;6.80;;;;;;;14.09;100.00;100681.56;5061320;28;20031;-68
2024/02/06 07:03:46;;;;;;;16.75;9.57;;;;;;;14.42;100.00;100641.34;5058091;28;20037;-68
2024/02/06 07:06:12;;;;;;;14.32;9.35;;;;;;;14.30;100.00;100473.75;5061321;28;20037;-68
2024/02/06 07:08:38;;;;;;;20.75;13.85;;;;;;;14.73;100.00;100622.34;5063396;28;20062;-68
2024/02/06 07:11:04;;;;;;;16.67;9.68;;;;;;;13.97;100.00;100571.19;5060282;28;20039;-68
2024/02/06 07:13:31;;;;;;;18.48;9.23;;;;;;;14.07;100.00;100518.84;5056446;28;20107;-68
2024/02/06 07:15:56;;;;;;;14.35;8.90;;;;;;;13.92;100.00;100456.31;5063481;28;20379;-70
2024/02/06 07:18:22;;;;;;;9.48;6.07;;;;;;;14.83;100.00;100556.28;5060642;28;20031;-68
2024/02/06 07:20:47;;;;;;;15.23;7.93;;;;;;;14.27;100.00;100444.84;5063470;28;20518;-68
2024/02/06 07:23:12;;;;;;;16.25;8.15;;;;;;;15.49;100.00;100489.72;5062286;28;20032;-69
2024/02/06 07:25:38;;;;;;;15.02;6.40;;;;;;;15.00;100.00;100419.94;5053322;28;20071;-70
2024/02/06 07:28:05;;;;;;;14.15;6.90;;;;;;;15.68;100.00;100471.03;5061936;28;20052;-68
2024/02/06 07:30:31;;;;;;;10.82;6.22;;;;;;;15.08;100.00;100249.75;5065213;28;20032;-68
2024/02/06 07:32:56;;;;;;;10.75;6.93;;;;;;;15.58;100.00;100358.66;5056761;28;20487;-68
2024/02/06 07:35:22;;;;;;;12.85;6.43;;;;;;;16.10;100.00;100379.47;5057368;28;20036;-68
2024/02/06 07:37:47;;;;;;;9.35;5.55;;;;;;;15.31;100.00;100252.16;5059867;28;20031;-68
2024/02/06 07:40:12;;;;;;;8.73;5.20;;;;;;;16.38;100.00;100382.47;5059476;28;20037;-68
2024/02/06 07:42:38;;;;;;;11.10;6.28;;;;;;;16.43;100.00;100226.53;5055122;28;20147;-68
2024/02/06 07:45:04;;;;;;;9.75;6.13;;;;;;;16.17;100.00;100239.75;5060695;28;20036;-68
2024/02/06 07:47:30;;;;;;;10.90;5.80;;;;;;;16.85;100.00;100334.06;5064329;28;20032;-68
2024/02/06 07:49:55;;;;;;;9.77;5.28;;;;;;;16.93;100.00;100250.63;5058077;28;20036;-72
2024/02/06 07:52:21;;;;;;;7.53;4.63;;;;;;;16.79;100.00;100245.31;5054895;28;20028;-69
2024/02/06 07:54:47;;;;;;;10.57;4.90;;;;;;;17.52;100.00;100262.19;5058114;28;20044;-69
2024/02/06 07:57:12;;;;;;;9.90;4.63;;;;;;;17.64;100.00;100279.56;5061936;28;20033;-68
2024/02/06 07:59:38;;;;;;;10.20;5.70;;;;;;;17.40;100.00;100309.91;5061194;28;20116;-68
2024/02/06 08:02:03;;;;;;;11.57;6.22;;;;;;;16.94;100.00;100231.72;5065502;28;20089;-68
2024/02/06 08:04:29;;;;;;;11.32;7.07;;;;;;;17.11;100.00;100162.31;5066555;28;20480;-68
2024/02/06 08:06:54;;;;;;;11.85;5.95;;;;;;;17.40;100.00;100191.66;5058500;28;20115;-69
2024/02/06 08:09:20;;;;;;;13.07;7.45;;;;;;;17.48;100.00;100265.81;5060608;28;20095;-68
2024/02/06 08:11:46;;;;;;;15.07;8.10;;;;;;;17.80;100.00;100265.84;5056738;28;21676;-67
2024/02/06 08:14:13;;;;;;;18.85;9.25;;;;;;;16.99;100.00;100186.09;5055690;28;20091;-67
2024/02/06 08:16:41;;;;;;;15.35;8.98;;;;;;;17.84;100.00;100243.34;5060072;28;20025;-68
2024/02/06 08:19:08;;;;;;;17.63;8.45;;;;;;;17.88;100.00;100216.53;5055407;28;20037;-67
2024/02/06 08:21:34;;;;;;;18.17;8.63;;;;;;;18.23;100.00;100207.72;5061935;28;20478;-68
2024/02/06 08:23:59;;;;;;;14.60;7.88;;;;;;;18.05;100.00;100203.56;5055100;28;20029;-69
2024/02/06 08:26:24;;;;;;;18.00;9.15;;;;;;;18.02;100.00;100116.28;5061375;28;20633;-68
2024/02/06 08:28:50;;;;;;;15.77;7.88;;;;;;;18.24;100.00;100227.41;5055365;28;20570;-68
2024/02/06 08:31:16;;;;;;;12.98;6.70;;;;;;;18.07;100.00;100233.47;5049047;28;20128;-68
2024/02/06 08:33:44;;;;;;;16.05;8.27;;;;;;;18.28;100.00;100223.75;5056878;28;20108;-68
2024/02/06 08:36:13;;;;;;;10.27;5.28;;;;;;;17.56;100.00;99994.56;5060318;28;20544;-68
2024/02/06 08:38:39;;;;;;;16.77;5.80;;;;;;;17.89;100.00;100092.13;5056393;28;20120;-68
2024/02/06 08:41:05;;;;;;;13.27;5.40;;;;;;;17.74;100.00;100118.72;5057981;28;20021;-67
2024/02/06 08:43:31;;;;;;;16.23;7.05;;;;;;;18.44;100.00;100203.94;5065031;28;20090;-67
2024/02/06 08:45:57;;;;;;;13.68;5.75;;;;;;;18.49;100.00;100191.66;5057641;28;20029;-69
2024/02/06 08:48:23;;;;;;;10.73;5.53;;;;;;;18.56;100.00;100162.06;5054097;28;20043;-68
2024/02/06 08:50:49;;;;;;;15.93;7.18;;;;;;;17.39;100.00;99999.78;5052517;28;20025;-69
2024/02/06 08:53:16;;;;;;;14.27;6.93;;;;;;;18.09;100.00;100012.91;5051794;28;20040;-68
2024/02/06 08:55:43;;;;;;;16.50;7.65;;;;;;;18.69;100.00;100114.06;5051256;28;20049;-68
2024/02/06 08:58:08;;;;;;;8.65;4.18;;;;;;;19.08;100.00;100113.44;5058155;28;20104;-68
2024/02/06 09:00:34;;;;;;;12.23;4.25;;;;;;;19.10;100.00;100110.75;5058912;28;20035;-68
2024/02/06 09:02:59;;;;;;;7.85;3.72;;;;;;;19.39;100.00;100040.22;5055118;28;20040;-68
2024/02/06 09:05:24;;;;;;;8.07;3.60;;;;;;;19.00;100.00;99935.25;5052309;28;20037;-68
2024/02/06 09:07:50;;;;;;;11.05;3.72;;;;;;;19.21;100.00;99931.31;5054277;28;20116;-68
2024/02/06 09:10:16;;;;;;;11.15;3.65;;;;;;;19.68;100.00;99975.53;5060381;28;20116;-69
2024/02/06 09:12:41;;;;;;;8.13;2.80;;;;;;;19.95;97.09;99972.84;5051872;28;20029;-68
2024/02/06 09:15:07;;;;;;;8.00;2.35;;;;;;;20.29;94.68;99972.28;5055963;28;20044;-67
2024/02/06 09:17:33;;;;;;;7.22;3.03;;;;;;;19.54;96.12;99951.53;5058399;28;20150;-68
2024/02/06 09:19:58;;;;;;;18.65;9.82;;;;;;;19.89;99.31;100061.84;5054341;28;20032;-68
2024/02/06 09:22:24;;;;;;;6.88;3.58;;;;;;;19.79;99.94;99934.34;5059904;28;20056;-68
2024/02/06 09:24:49;;;;;;;13.57;3.92;;;;;;;20.02;98.87;100041.22;5054292;28;20061;-68
2024/02/06 09:27:15;;;;;;;10.40;3.30;;;;;;;20.38;99.98;99973.44;5058493;28;20040;-68
2024/02/06 09:29:40;;;;;;;9.85;3.05;;;;;;;20.35;95.32;99968.44;5061430;28;20081;-68
2024/02/06 09:32:06;;;;;;;6.43;2.53;;;;;;;20.56;95.19;99974.75;5053922;28;20071;-69
2024/02/06 09:34:31;;;;;;;9.07;2.95;;;;;;;20.56;96.16;99975.56;5054761;28;20230;-68
2024/02/06 09:36:56;;;;;;;9.50;2.72;;;;;;;20.68;92.69;99937.69;5056979;28;20035;-68
2024/02/06 09:39:22;;;;;;;13.55;4.85;;;;;;;20.81;94.61;99917.81;5057293;28;20029;-68
2024/02/06 09:41:49;;;;;;;10.88;3.53;;;;;;;20.76;91.24;99940.56;5055163;28;20033;-68
2024/02/06 09:44:16;;;;;;;11.32;3.78;;;;;;;21.03;88.99;99881.78;5053055;28;20407;-68
2024/02/06 09:46:44;;;;;;;6.63;2.25;;;;;;;21.24;86.44;99823.31;5058981;28;20117;-69
2024/02/06 09:49:10;;;;;;;5.78;2.60;;;;;;;21.11;87.81;99852.78;5059996;28;20039;-68
2024/02/06 09:51:41;;;;;;;6.40;2.15;;;;;;;20.74;86.52;99795.97;5056792;28;20028;-68
2024/02/06 09:54:07;;;;;;;10.65;3.03;;;;;;;20.89;86.94;99850.06;5054755;28;20025;-67
2024/02/06 09:56:35;;;;;;;9.20;3.25;;;;;;;20.84;84.58;99818.56;5060779;28;20098;-67
2024/02/06 09:59:05;;;;;;;9.15;3.38;;;;;;;21.37;85.31;99843.94;5054964;28;20038;-70
2024/02/06 10:01:35;;;;;;;9.95;2.88;;;;;;;21.34;82.95;99863.06;5054501;28;20032;-68
2024/02/06 10:04:03;;;;;;;11.85;3.65;;;;;;;21.45;85.98;99836.41;5058692;28;20025;-68
2024/02/06 10:06:30;;;;;;;8.73;2.50;;;;;;;20.99;86.11;99800.19;5050966;28;20555;-68
2024/02/06 10:08:57;;;;;;;6.43;2.40;;;;;;;21.59;86.01;99857.72;5056874;28;20028;-67
2024/02/06 10:11:23;;;;;;;10.13;6.15;;;;;;;21.47;87.27;99837.94;5057949;28;20571;-67
2024/02/06 10:13:49;;;;;;;8.73;3.45;;;;;;;21.71;87.84;99711.00;5053338;28;20384;-68
2024/02/06 10:16:14;;;;;;;8.23;4.80;;;;;;;22.12;83.86;99801.03;5053469;28;20059;-68
2024/02/06 10:18:53;;;;;;;8.73;4.43;;;;;;;21.93;82.44;99806.81;5058435;28;20070;-67
2024/02/06 10:21:19;;;;;;;11.07;2.17;;;;;;;21.75;82.55;99683.94;5051454;28;20039;-68
2024/02/06 10:23:45;;;;;;;7.53;2.25;;;;;;;21.75;84.00;99676.19;5054304;28;20487;-70
2024/02/06 10:26:10;;;;;;;8.70;3.03;;;;;;;21.65;82.06;99658.94;4367712;28;10000725;-69
2024/02/06 10:28:36;;;;;;;6.95;2.90;;;;;;;22.38;82.59;99719.50;5094655;28;20125;-70
2024/02/06 10:31:12;;;;;;;6.90;2.25;;;;;;;22.18;82.90;99748.75;5092504;28;20047;-70
2024/02/06 10:33:38;;;;;;;7.22;2.33;;;;;;;22.37;79.22;99661.66;5091045;28;20055;-69
2024/02/06 10:36:04;;;;;;;5.07;1.77;;;;;;;22.36;76.70;99608.19;5093305;28;20498;-70
2024/02/06 10:38:30;;;;;;;7.68;2.30;;;;;;;22.59;74.88;99680.66;5076701;28;20043;-70
2024/02/06 10:40:57;;;;;;;6.97;2.38;;;;;;;22.56;74.82;99530.56;5081446;28;20091;-69
2024/02/06 10:43:29;;;;;;;7.07;2.00;;;;;;;22.71;73.21;99646.78;5100858;27;20073;-69
2024/02/06 10:45:58;;;;;;;8.40;2.47;;;;;;;22.79;73.07;99670.28;5097963;28;20042;-69
2024/02/06 10:48:24;;;;;;;5.18;1.92;;;;;;;22.89;73.60;99673.78;5105692;27;20122;-71
2024/02/06 10:51:00;;;;;;;6.53;1.95;;;;;;;23.13;72.42;99634.56;5082925;28;20553;-69
2024/02/06 10:53:26;;;;;;;6.20;1.85;;;;;;;22.84;70.43;99665.53;5079118;28;20206;-69
2024/02/06 10:56:05;;;;;;;6.72;1.50;;;;;;;22.80;70.49;99515.56;5080876;28;20043;-70
2024/02/06 10:58:38;;;;;;;9.13;2.03;;;;;;;23.35;70.77;99613.66;5073814;28;20037;-69
2024/02/06 11:01:08;;;;;;;7.68;2.22;;;;;;;22.88;70.15;99495.78;5058802;28;20037;-73
2024/02/06 11:03:41;;;;;;;5.53;2.03;;;;;;;23.43;69.24;99572.28;5061343;28;20048;-68
2024/02/06 11:06:16;;;;;;;6.72;2.00;;;;;;;22.90;68.11;99480.91;5059996;28;20414;-69
2024/02/06 11:08:44;;;;;;;5.95;1.77;;;;;;;22.70;66.58;99479.22;5057995;28;20112;-70
2024/02/06 11:11:12;;;;;;;6.90;1.80;;;;;;;23.10;66.68;99476.59;5057674;28;20028;-70